sensor_id;sensor_type;location;lat;lon;timestamp;temperature;humidity
60717;DHT22;46566;52.700;6.192;2023-07-29T00:00:39;18.10;99.90
60717;DHT22;46566;52.700;6.192;2023-07-29T00:03:05;18.00;99.90
60717;DHT22;46566;52.700;6.192;2023-07-29T00:05:31;18.10;99.90
60717;DHT22;46566;52.700;6.192;2023-07-29T00:07:57;18.10;99.90
60717;DHT22;46566;52.700;6.192;2023-07-29T00:10:23;18.10;99.90
60717;DHT22;46566;52.700;6.192;2023-07-29T00:12:48;18.10;99.90
60717;DHT22;46566;52.700;6.192;2023-07-29T00:15:14;18.10;99.90
60717;DHT22;46566;52.700;6.192;2023-07-29T00:17:39;18.10;99.90
60717;DHT22;46566;52.700;6.192;2023-07-29T00:20:06;18.10;99.90
60717;DHT22;46566;52.700;6.192;2023-07-29T00:22:32;18.10;99.90
60717;DHT22;46566;52.700;6.192;2023-07-29T00:24:58;18.10;99.90
60717;DHT22;46566;52.700;6.192;2023-07-29T00:27:25;18.00;99.90
60717;DHT22;46566;52.700;6.192;2023-07-29T00:29:51;18.00;99.90
60717;DHT22;46566;52.700;6.192;2023-07-29T00:32:16;18.00;99.90
60717;DHT22;46566;52.700;6.192;2023-07-29T00:34:44;18.00;99.90
60717;DHT22;46566;52.700;6.192;2023-07-29T00:37:10;17.90;99.90
60717;DHT22;46566;52.700;6.192;2023-07-29T00:39:37;17.90;99.90
60717;DHT22;46566;52.700;6.192;2023-07-29T00:42:04;17.80;99.90
60717;DHT22;46566;52.700;6.192;2023-07-29T00:44:30;17.80;99.90
60717;DHT22;46566;52.700;6.192;2023-07-29T00:47:02;17.80;99.90
60717;DHT22;46566;52.700;6.192;2023-07-29T00:49:28;17.80;99.90
60717;DHT22;46566;52.700;6.192;2023-07-29T00:51:54;17.80;99.90
60717;DHT22;46566;52.700;6.192;2023-07-29T00:54:20;17.80;99.90
60717;DHT22;46566;52.700;6.192;2023-07-29T00:56:46;17.80;99.90
60717;DHT22;46566;52.700;6.192;2023-07-29T00:59:12;17.80;99.90
60717;DHT22;46566;52.700;6.192;2023-07-29T01:01:38;17.70;99.90
60717;DHT22;46566;52.700;6.192;2023-07-29T01:04:04;17.70;99.90
60717;DHT22;46566;52.700;6.192;2023-07-29T01:06:50;17.70;99.90
60717;DHT22;46566;52.700;6.192;2023-07-29T01:12:15;17.60;99.90
60717;DHT22;46566;52.700;6.192;2023-07-29T01:15:01;17.60;99.90
60717;DHT22;46566;52.700;6.192;2023-07-29T01:17:36;17.50;99.90
60717;DHT22;46566;52.700;6.192;2023-07-29T01:20:08;17.50;99.90
60717;DHT22;46566;52.700;6.192;2023-07-29T01:22:35;17.50;99.90
60717;DHT22;46566;52.700;6.192;2023-07-29T01:25:01;17.50;99.90
60717;DHT22;46566;52.700;6.192;2023-07-29T01:27:27;17.40;99.90
60717;DHT22;46566;52.700;6.192;2023-07-29T01:29:54;17.40;99.90
60717;DHT22;46566;52.700;6.192;2023-07-29T01:32:39;17.40;99.90
60717;DHT22;46566;52.700;6.192;2023-07-29T01:37:34;17.30;99.90
60717;DHT22;46566;52.700;6.192;2023-07-29T01:40:01;17.30;99.90
60717;DHT22;46566;52.700;6.192;2023-07-29T01:42:29;17.30;99.90
60717;DHT22;46566;52.700;6.192;2023-07-29T01:44:55;17.60;99.90
60717;DHT22;46566;52.700;6.192;2023-07-29T01:47:21;17.30;99.90
60717;DHT22;46566;52.700;6.192;2023-07-29T01:49:48;17.30;99.90
60717;DHT22;46566;52.700;6.192;2023-07-29T01:52:14;17.30;99.90
60717;DHT22;46566;52.700;6.192;2023-07-29T01:54:39;17.40;99.90
60717;DHT22;46566;52.700;6.192;2023-07-29T01:57:05;17.40;99.90
60717;DHT22;46566;52.700;6.192;2023-07-29T01:59:31;17.40;99.90
60717;DHT22;46566;52.700;6.192;2023-07-29T02:01:56;17.30;99.90
60717;DHT22;46566;52.700;6.192;2023-07-29T02:04:22;17.30;99.90
60717;DHT22;46566;52.700;6.192;2023-07-29T02:06:48;17.30;99.90
60717;DHT22;46566;52.700;6.192;2023-07-29T02:09:13;17.30;99.90
60717;DHT22;46566;52.700;6.192;2023-07-29T02:11:39;17.40;99.90
60717;DHT22;46566;52.700;6.192;2023-07-29T02:14:05;17.40;99.90
60717;DHT22;46566;52.700;6.192;2023-07-29T02:16:31;17.30;99.90
60717;DHT22;46566;52.700;6.192;2023-07-29T02:18:58;17.40;99.90
60717;DHT22;46566;52.700;6.192;2023-07-29T02:21:24;17.40;99.90
60717;DHT22;46566;52.700;6.192;2023-07-29T02:23:50;17.40;99.90
60717;DHT22;46566;52.700;6.192;2023-07-29T02:26:16;17.40;99.90
60717;DHT22;46566;52.700;6.192;2023-07-29T02:28:42;17.40;99.90
60717;DHT22;46566;52.700;6.192;2023-07-29T02:33:39;17.40;99.90
60717;DHT22;46566;52.700;6.192;2023-07-29T02:36:05;17.40;99.90
60717;DHT22;46566;52.700;6.192;2023-07-29T02:38:31;17.40;99.90
60717;DHT22;46566;52.700;6.192;2023-07-29T02:40:58;17.40;99.90
60717;DHT22;46566;52.700;6.192;2023-07-29T02:43:23;17.30;99.90
60717;DHT22;46566;52.700;6.192;2023-07-29T02:45:49;17.30;99.90
60717;DHT22;46566;52.700;6.192;2023-07-29T02:48:15;17.30;99.90
60717;DHT22;46566;52.700;6.192;2023-07-29T02:50:40;17.30;99.90
60717;DHT22;46566;52.700;6.192;2023-07-29T02:53:06;17.30;99.90
60717;DHT22;46566;52.700;6.192;2023-07-29T02:55:32;17.20;99.90
60717;DHT22;46566;52.700;6.192;2023-07-29T02:57:58;17.20;99.90
60717;DHT22;46566;52.700;6.192;2023-07-29T03:00:24;17.20;99.90
60717;DHT22;46566;52.700;6.192;2023-07-29T03:02:50;17.20;99.90
60717;DHT22;46566;52.700;6.192;2023-07-29T03:05:16;17.10;99.90
60717;DHT22;46566;52.700;6.192;2023-07-29T03:07:42;17.10;99.90
60717;DHT22;46566;52.700;6.192;2023-07-29T03:10:08;17.10;99.90
60717;DHT22;46566;52.700;6.192;2023-07-29T03:12:34;17.10;99.90
60717;DHT22;46566;52.700;6.192;2023-07-29T03:15:00;17.10;99.90
60717;DHT22;46566;52.700;6.192;2023-07-29T03:17:26;17.00;99.90
60717;DHT22;46566;52.700;6.192;2023-07-29T03:19:52;17.00;99.90
60717;DHT22;46566;52.700;6.192;2023-07-29T03:22:18;17.00;99.90
60717;DHT22;46566;52.700;6.192;2023-07-29T03:24:44;17.00;99.90
60717;DHT22;46566;52.700;6.192;2023-07-29T03:27:09;17.00;99.90
60717;DHT22;46566;52.700;6.192;2023-07-29T03:29:35;17.00;99.90
60717;DHT22;46566;52.700;6.192;2023-07-29T03:32:01;17.00;99.90
60717;DHT22;46566;52.700;6.192;2023-07-29T03:34:27;16.90;99.90
60717;DHT22;46566;52.700;6.192;2023-07-29T03:36:53;16.90;99.90
60717;DHT22;46566;52.700;6.192;2023-07-29T03:39:18;16.90;99.90
60717;DHT22;46566;52.700;6.192;2023-07-29T03:41:44;16.90;99.90
60717;DHT22;46566;52.700;6.192;2023-07-29T03:44:10;16.80;99.90
60717;DHT22;46566;52.700;6.192;2023-07-29T03:46:36;16.80;99.90
60717;DHT22;46566;52.700;6.192;2023-07-29T03:49:02;16.80;99.90
60717;DHT22;46566;52.700;6.192;2023-07-29T03:51:28;16.80;99.90
60717;DHT22;46566;52.700;6.192;2023-07-29T03:53:54;16.80;99.90
60717;DHT22;46566;52.700;6.192;2023-07-29T03:56:20;16.80;99.90
60717;DHT22;46566;52.700;6.192;2023-07-29T03:58:46;16.80;99.90
60717;DHT22;46566;52.700;6.192;2023-07-29T04:01:13;16.70;99.90
60717;DHT22;46566;52.700;6.192;2023-07-29T04:03:39;16.70;99.90
60717;DHT22;46566;52.700;6.192;2023-07-29T04:06:05;16.80;99.90
60717;DHT22;46566;52.700;6.192;2023-07-29T04:08:31;16.70;99.90
60717;DHT22;46566;52.700;6.192;2023-07-29T04:10:57;16.70;99.90
60717;DHT22;46566;52.700;6.192;2023-07-29T04:13:22;16.70;99.90
60717;DHT22;46566;52.700;6.192;2023-07-29T04:15:48;16.70;99.90
60717;DHT22;46566;52.700;6.192;2023-07-29T04:18:14;16.70;99.90
60717;DHT22;46566;52.700;6.192;2023-07-29T04:20:40;16.70;99.90
60717;DHT22;46566;52.700;6.192;2023-07-29T04:23:06;16.70;99.90
60717;DHT22;46566;52.700;6.192;2023-07-29T04:25:32;16.60;99.90
60717;DHT22;46566;52.700;6.192;2023-07-29T04:27:57;16.60;99.90
60717;DHT22;46566;52.700;6.192;2023-07-29T04:30:23;16.60;99.90
60717;DHT22;46566;52.700;6.192;2023-07-29T04:32:49;16.50;99.90
60717;DHT22;46566;52.700;6.192;2023-07-29T04:35:15;16.60;99.90
60717;DHT22;46566;52.700;6.192;2023-07-29T04:37:41;16.60;99.90
60717;DHT22;46566;52.700;6.192;2023-07-29T04:40:07;16.60;99.90
60717;DHT22;46566;52.700;6.192;2023-07-29T04:42:33;16.60;99.90
60717;DHT22;46566;52.700;6.192;2023-07-29T04:44:58;16.60;99.90
60717;DHT22;46566;52.700;6.192;2023-07-29T04:47:24;16.60;99.90
60717;DHT22;46566;52.700;6.192;2023-07-29T04:49:50;16.60;99.90
60717;DHT22;46566;52.700;6.192;2023-07-29T04:52:15;16.60;99.90
60717;DHT22;46566;52.700;6.192;2023-07-29T04:54:41;16.60;99.90
60717;DHT22;46566;52.700;6.192;2023-07-29T04:57:07;16.70;99.90
60717;DHT22;46566;52.700;6.192;2023-07-29T04:59:33;16.70;99.90
60717;DHT22;46566;52.700;6.192;2023-07-29T05:01:58;16.70;99.90
60717;DHT22;46566;52.700;6.192;2023-07-29T05:04:24;16.70;99.90
60717;DHT22;46566;52.700;6.192;2023-07-29T05:06:50;16.70;99.90
60717;DHT22;46566;52.700;6.192;2023-07-29T05:09:17;16.70;99.90
60717;DHT22;46566;52.700;6.192;2023-07-29T05:11:44;16.70;99.90
60717;DHT22;46566;52.700;6.192;2023-07-29T05:14:14;16.80;99.90
60717;DHT22;46566;52.700;6.192;2023-07-29T05:16:42;16.80;99.90
60717;DHT22;46566;52.700;6.192;2023-07-29T05:19:07;16.80;99.90
60717;DHT22;46566;52.700;6.192;2023-07-29T05:21:33;16.80;99.90
60717;DHT22;46566;52.700;6.192;2023-07-29T05:23:59;16.80;99.90
60717;DHT22;46566;52.700;6.192;2023-07-29T05:26:25;16.80;99.90
60717;DHT22;46566;52.700;6.192;2023-07-29T05:28:51;16.80;99.90
60717;DHT22;46566;52.700;6.192;2023-07-29T05:31:16;16.80;99.90
60717;DHT22;46566;52.700;6.192;2023-07-29T05:33:42;16.90;99.90
60717;DHT22;46566;52.700;6.192;2023-07-29T05:36:08;16.90;99.90
60717;DHT22;46566;52.700;6.192;2023-07-29T05:38:34;16.90;99.90
60717;DHT22;46566;52.700;6.192;2023-07-29T05:40:59;16.90;99.90
60717;DHT22;46566;52.700;6.192;2023-07-29T05:43:27;16.90;99.90
60717;DHT22;46566;52.700;6.192;2023-07-29T05:45:53;16.90;99.90
60717;DHT22;46566;52.700;6.192;2023-07-29T05:48:22;16.90;99.90
60717;DHT22;46566;52.700;6.192;2023-07-29T05:50:47;17.00;99.90
60717;DHT22;46566;52.700;6.192;2023-07-29T05:53:14;17.00;99.90
60717;DHT22;46566;52.700;6.192;2023-07-29T05:55:40;17.00;99.90
60717;DHT22;46566;52.700;6.192;2023-07-29T05:58:06;16.90;99.90
60717;DHT22;46566;52.700;6.192;2023-07-29T06:00:31;16.90;99.90
60717;DHT22;46566;52.700;6.192;2023-07-29T06:02:59;17.00;99.90
60717;DHT22;46566;52.700;6.192;2023-07-29T06:05:25;17.00;99.90
60717;DHT22;46566;52.700;6.192;2023-07-29T06:07:51;17.10;99.90
60717;DHT22;46566;52.700;6.192;2023-07-29T06:10:17;17.10;99.90
60717;DHT22;46566;52.700;6.192;2023-07-29T06:12:47;17.20;99.90
60717;DHT22;46566;52.700;6.192;2023-07-29T06:15:12;17.20;99.90
60717;DHT22;46566;52.700;6.192;2023-07-29T06:17:39;17.20;99.90
60717;DHT22;46566;52.700;6.192;2023-07-29T06:20:06;17.30;99.90
60717;DHT22;46566;52.700;6.192;2023-07-29T06:22:32;17.30;99.90
60717;DHT22;46566;52.700;6.192;2023-07-29T06:24:58;17.40;99.90
60717;DHT22;46566;52.700;6.192;2023-07-29T06:27:24;17.40;99.90
60717;DHT22;46566;52.700;6.192;2023-07-29T06:29:50;17.50;99.90
60717;DHT22;46566;52.700;6.192;2023-07-29T06:32:22;17.50;99.90
60717;DHT22;46566;52.700;6.192;2023-07-29T06:34:48;17.60;99.90
60717;DHT22;46566;52.700;6.192;2023-07-29T06:37:14;17.50;99.90
60717;DHT22;46566;52.700;6.192;2023-07-29T06:39:40;17.60;99.90
60717;DHT22;46566;52.700;6.192;2023-07-29T06:42:05;17.60;99.90
60717;DHT22;46566;52.700;6.192;2023-07-29T06:44:32;17.60;99.90
60717;DHT22;46566;52.700;6.192;2023-07-29T06:46:58;17.60;99.90
60717;DHT22;46566;52.700;6.192;2023-07-29T06:49:23;17.60;99.90
60717;DHT22;46566;52.700;6.192;2023-07-29T06:51:49;17.60;99.90
60717;DHT22;46566;52.700;6.192;2023-07-29T06:54:16;17.70;99.90
60717;DHT22;46566;52.700;6.192;2023-07-29T06:56:42;17.70;99.90
60717;DHT22;46566;52.700;6.192;2023-07-29T06:59:08;17.80;99.90
60717;DHT22;46566;52.700;6.192;2023-07-29T07:01:34;17.80;99.90
60717;DHT22;46566;52.700;6.192;2023-07-29T07:04:00;17.90;99.90
60717;DHT22;46566;52.700;6.192;2023-07-29T07:06:25;18.00;99.90
60717;DHT22;46566;52.700;6.192;2023-07-29T07:08:51;18.10;99.90
60717;DHT22;46566;52.700;6.192;2023-07-29T07:11:18;18.10;99.90
60717;DHT22;46566;52.700;6.192;2023-07-29T07:13:44;18.20;99.90
60717;DHT22;46566;52.700;6.192;2023-07-29T07:16:10;18.30;99.90
60717;DHT22;46566;52.700;6.192;2023-07-29T07:18:35;18.30;99.90
60717;DHT22;46566;52.700;6.192;2023-07-29T07:21:01;18.30;99.90
60717;DHT22;46566;52.700;6.192;2023-07-29T07:23:27;18.30;99.90
60717;DHT22;46566;52.700;6.192;2023-07-29T07:25:52;18.30;99.90
60717;DHT22;46566;52.700;6.192;2023-07-29T07:28:18;18.40;99.90
60717;DHT22;46566;52.700;6.192;2023-07-29T07:30:44;18.40;99.90
60717;DHT22;46566;52.700;6.192;2023-07-29T07:33:10;18.40;99.90
60717;DHT22;46566;52.700;6.192;2023-07-29T07:36:01;18.50;99.90
60717;DHT22;46566;52.700;6.192;2023-07-29T07:38:27;18.60;99.90
60717;DHT22;46566;52.700;6.192;2023-07-29T07:40:54;18.70;99.90
60717;DHT22;46566;52.700;6.192;2023-07-29T07:43:46;18.80;99.90
60717;DHT22;46566;52.700;6.192;2023-07-29T07:46:11;18.90;99.90
60717;DHT22;46566;52.700;6.192;2023-07-29T07:48:38;19.00;99.90
60717;DHT22;46566;52.700;6.192;2023-07-29T07:51:11;19.10;99.90
60717;DHT22;46566;52.700;6.192;2023-07-29T07:53:46;19.20;99.90
60717;DHT22;46566;52.700;6.192;2023-07-29T08:01:05;19.40;99.90
60717;DHT22;46566;52.700;6.192;2023-07-29T08:03:32;19.50;99.90
60717;DHT22;46566;52.700;6.192;2023-07-29T08:06:23;19.60;99.90
60717;DHT22;46566;52.700;6.192;2023-07-29T08:08:48;19.80;99.90
60717;DHT22;46566;52.700;6.192;2023-07-29T08:45:06;20.00;99.90
60717;DHT22;46566;52.700;6.192;2023-07-29T08:47:59;21.30;99.90
60717;DHT22;46566;52.700;6.192;2023-07-29T08:50:28;21.50;99.90
60717;DHT22;46566;52.700;6.192;2023-07-29T08:52:55;21.50;99.90
60717;DHT22;46566;52.700;6.192;2023-07-29T08:55:21;21.40;99.90
60717;DHT22;46566;52.700;6.192;2023-07-29T08:58:13;21.40;99.90
60717;DHT22;46566;52.700;6.192;2023-07-29T09:00:39;21.30;99.90
60717;DHT22;46566;52.700;6.192;2023-07-29T09:03:06;21.30;99.90
60717;DHT22;46566;52.700;6.192;2023-07-29T09:05:52;21.20;99.90
60717;DHT22;46566;52.700;6.192;2023-07-29T09:08:19;21.40;99.90
60717;DHT22;46566;52.700;6.192;2023-07-29T09:10:45;21.70;99.90
60717;DHT22;46566;52.700;6.192;2023-07-29T09:13:11;22.20;99.90
60717;DHT22;46566;52.700;6.192;2023-07-29T09:25:47;22.90;99.90
60717;DHT22;46566;52.700;6.192;2023-07-29T09:28:25;22.50;99.90
60717;DHT22;46566;52.700;6.192;2023-07-29T09:30:53;22.40;99.90
60717;DHT22;46566;52.700;6.192;2023-07-29T09:33:19;22.40;99.90
60717;DHT22;46566;52.700;6.192;2023-07-29T09:35:45;22.60;99.90
60717;DHT22;46566;52.700;6.192;2023-07-29T09:41:05;22.70;99.90
60717;DHT22;46566;52.700;6.192;2023-07-29T09:43:32;22.80;99.90
60717;DHT22;46566;52.700;6.192;2023-07-29T09:46:05;22.80;99.90
60717;DHT22;46566;52.700;6.192;2023-07-29T09:49:07;22.60;99.90
60717;DHT22;46566;52.700;6.192;2023-07-29T09:51:39;22.50;99.90
60717;DHT22;46566;52.700;6.192;2023-07-29T09:54:21;22.30;99.90
60717;DHT22;46566;52.700;6.192;2023-07-29T09:56:47;22.20;99.90
60717;DHT22;46566;52.700;6.192;2023-07-29T09:59:13;22.10;99.90
60717;DHT22;46566;52.700;6.192;2023-07-29T10:01:39;21.90;99.90
60717;DHT22;46566;52.700;6.192;2023-07-29T10:04:05;21.80;99.90
60717;DHT22;46566;52.700;6.192;2023-07-29T10:07:00;21.70;99.90
60717;DHT22;46566;52.700;6.192;2023-07-29T10:09:26;21.60;99.90
60717;DHT22;46566;52.700;6.192;2023-07-29T10:11:53;21.60;99.90
60717;DHT22;46566;52.700;6.192;2023-07-29T10:14:46;21.60;99.90
60717;DHT22;46566;52.700;6.192;2023-07-29T10:17:15;21.60;99.90
60717;DHT22;46566;52.700;6.192;2023-07-29T10:19:41;21.70;99.90
60717;DHT22;46566;52.700;6.192;2023-07-29T10:22:09;21.60;99.90
60717;DHT22;46566;52.700;6.192;2023-07-29T10:24:56;21.60;99.90
60717;DHT22;46566;52.700;6.192;2023-07-29T10:27:24;21.50;99.90
60717;DHT22;46566;52.700;6.192;2023-07-29T10:29:50;21.40;99.90
60717;DHT22;46566;52.700;6.192;2023-07-29T10:32:43;21.10;99.90
60717;DHT22;46566;52.700;6.192;2023-07-29T10:35:13;21.10;99.90
60717;DHT22;46566;52.700;6.192;2023-07-29T10:37:39;21.10;99.90
60717;DHT22;46566;52.700;6.192;2023-07-29T10:40:08;21.10;99.90
60717;DHT22;46566;52.700;6.192;2023-07-29T10:43:03;21.10;99.90
60717;DHT22;46566;52.700;6.192;2023-07-29T10:45:38;21.40;99.90
60717;DHT22;46566;52.700;6.192;2023-07-29T10:51:25;22.10;99.90
60717;DHT22;46566;52.700;6.192;2023-07-29T10:54:14;22.20;99.90
60717;DHT22;46566;52.700;6.192;2023-07-29T10:56:41;22.10;99.90
60717;DHT22;46566;52.700;6.192;2023-07-29T11:02:17;21.70;99.90
60717;DHT22;46566;52.700;6.192;2023-07-29T11:04:50;21.70;99.90
60717;DHT22;46566;52.700;6.192;2023-07-29T11:07:45;21.60;99.90
60717;DHT22;46566;52.700;6.192;2023-07-29T11:10:12;21.60;99.90
60717;DHT22;46566;52.700;6.192;2023-07-29T11:13:10;21.60;99.90
60717;DHT22;46566;52.700;6.192;2023-07-29T11:15:39;21.50;99.90
60717;DHT22;46566;52.700;6.192;2023-07-29T11:18:05;21.50;99.90
60717;DHT22;46566;52.700;6.192;2023-07-29T11:20:33;21.50;99.90
60717;DHT22;46566;52.700;6.192;2023-07-29T11:23:17;21.60;99.90
60717;DHT22;46566;52.700;6.192;2023-07-29T11:25:43;21.70;99.90
60717;DHT22;46566;52.700;6.192;2023-07-29T11:28:10;21.90;99.90
60717;DHT22;46566;52.700;6.192;2023-07-29T11:30:39;22.10;99.90
60717;DHT22;46566;52.700;6.192;2023-07-29T11:33:04;22.30;99.90
60717;DHT22;46566;52.700;6.192;2023-07-29T11:35:42;22.60;99.90
60717;DHT22;46566;52.700;6.192;2023-07-29T11:38:15;22.90;99.90
60717;DHT22;46566;52.700;6.192;2023-07-29T11:40:41;23.00;99.90
60717;DHT22;46566;52.700;6.192;2023-07-29T11:43:06;23.20;99.90
60717;DHT22;46566;52.700;6.192;2023-07-29T11:45:51;23.30;99.90
60717;DHT22;46566;52.700;6.192;2023-07-29T11:48:17;23.50;99.90
60717;DHT22;46566;52.700;6.192;2023-07-29T11:50:45;23.60;99.90
60717;DHT22;46566;52.700;6.192;2023-07-29T11:53:11;23.60;99.90
60717;DHT22;46566;52.700;6.192;2023-07-29T11:55:37;23.60;99.90
60717;DHT22;46566;52.700;6.192;2023-07-29T11:58:28;23.80;99.90
60717;DHT22;46566;52.700;6.192;2023-07-29T12:00:54;24.10;99.90
60717;DHT22;46566;52.700;6.192;2023-07-29T12:03:20;24.20;99.90
60717;DHT22;46566;52.700;6.192;2023-07-29T12:05:46;24.20;99.90
60717;DHT22;46566;52.700;6.192;2023-07-29T12:08:37;24.20;99.90
60717;DHT22;46566;52.700;6.192;2023-07-29T12:11:04;24.20;99.90
60717;DHT22;46566;52.700;6.192;2023-07-29T12:13:29;24.30;99.90
60717;DHT22;46566;52.700;6.192;2023-07-29T12:16:16;24.60;99.90
60717;DHT22;46566;52.700;6.192;2023-07-29T12:18:44;24.90;99.90
60717;DHT22;46566;52.700;6.192;2023-07-29T12:21:10;24.80;99.90
60717;DHT22;46566;52.700;6.192;2023-07-29T12:23:36;24.70;99.90
60717;DHT22;46566;52.700;6.192;2023-07-29T12:26:01;24.60;99.90
60717;DHT22;46566;52.700;6.192;2023-07-29T12:31:10;24.40;99.90
60717;DHT22;46566;52.700;6.192;2023-07-29T12:33:37;24.00;99.90
60717;DHT22;46566;52.700;6.192;2023-07-29T12:36:07;23.80;99.90
60717;DHT22;46566;52.700;6.192;2023-07-29T12:38:59;23.70;99.90
60717;DHT22;46566;52.700;6.192;2023-07-29T12:41:25;23.70;99.90
60717;DHT22;46566;52.700;6.192;2023-07-29T12:43:50;23.70;99.90
60717;DHT22;46566;52.700;6.192;2023-07-29T12:46:16;23.60;99.90
60717;DHT22;46566;52.700;6.192;2023-07-29T12:48:55;23.50;99.90
60717;DHT22;46566;52.700;6.192;2023-07-29T12:51:21;23.50;99.90
60717;DHT22;46566;52.700;6.192;2023-07-29T12:53:47;23.40;99.90
60717;DHT22;46566;52.700;6.192;2023-07-29T12:56:12;23.30;99.90
60717;DHT22;46566;52.700;6.192;2023-07-29T12:58:38;23.30;99.90
60717;DHT22;46566;52.700;6.192;2023-07-29T13:01:29;23.20;99.90
60717;DHT22;46566;52.700;6.192;2023-07-29T13:03:55;23.00;99.90
60717;DHT22;46566;52.700;6.192;2023-07-29T13:06:22;23.00;99.90
60717;DHT22;46566;52.700;6.192;2023-07-29T13:08:47;22.90;99.90
60717;DHT22;46566;52.700;6.192;2023-07-29T13:11:38;22.80;99.90
60717;DHT22;46566;52.700;6.192;2023-07-29T13:14:04;22.80;99.90
60717;DHT22;46566;52.700;6.192;2023-07-29T13:16:30;22.90;99.90
60717;DHT22;46566;52.700;6.192;2023-07-29T13:18:55;23.00;99.90
60717;DHT22;46566;52.700;6.192;2023-07-29T13:21:47;23.10;99.90
60717;DHT22;46566;52.700;6.192;2023-07-29T13:24:13;23.10;99.90
60717;DHT22;46566;52.700;6.192;2023-07-29T13:26:42;23.00;99.90
60717;DHT22;46566;52.700;6.192;2023-07-29T13:29:07;22.90;99.90
60717;DHT22;46566;52.700;6.192;2023-07-29T13:31:58;22.80;99.90
60717;DHT22;46566;52.700;6.192;2023-07-29T13:34:24;22.60;99.90
60717;DHT22;46566;52.700;6.192;2023-07-29T13:36:50;22.50;99.90
60717;DHT22;46566;52.700;6.192;2023-07-29T13:39:15;22.10;99.90
60717;DHT22;46566;52.700;6.192;2023-07-29T13:42:06;21.70;99.90
60717;DHT22;46566;52.700;6.192;2023-07-29T13:44:32;21.50;99.90
60717;DHT22;46566;52.700;6.192;2023-07-29T13:46:58;21.50;99.90
60717;DHT22;46566;52.700;6.192;2023-07-29T13:49:23;21.50;99.90
60717;DHT22;46566;52.700;6.192;2023-07-29T13:52:14;21.50;99.90
60717;DHT22;46566;52.700;6.192;2023-07-29T13:54:40;21.60;99.90
60717;DHT22;46566;52.700;6.192;2023-07-29T13:57:07;21.50;99.90
60717;DHT22;46566;52.700;6.192;2023-07-29T13:59:33;21.50;99.90
60717;DHT22;46566;52.700;6.192;2023-07-29T14:02:24;21.40;99.90
60717;DHT22;46566;52.700;6.192;2023-07-29T14:04:52;21.30;99.90
60717;DHT22;46566;52.700;6.192;2023-07-29T14:07:17;21.30;99.90
60717;DHT22;46566;52.700;6.192;2023-07-29T14:10:09;21.30;99.90
60717;DHT22;46566;52.700;6.192;2023-07-29T14:12:34;21.40;99.90
60717;DHT22;46566;52.700;6.192;2023-07-29T14:15:00;21.50;99.90
60717;DHT22;46566;52.700;6.192;2023-07-29T14:17:26;21.60;99.90
60717;DHT22;46566;52.700;6.192;2023-07-29T14:20:11;21.70;99.90
60717;DHT22;46566;52.700;6.192;2023-07-29T14:22:36;21.80;99.90
60717;DHT22;46566;52.700;6.192;2023-07-29T14:25:02;21.90;99.90
60717;DHT22;46566;52.700;6.192;2023-07-29T14:27:28;22.00;99.90
60717;DHT22;46566;52.700;6.192;2023-07-29T14:29:54;22.10;99.90
60717;DHT22;46566;52.700;6.192;2023-07-29T14:32:45;22.30;99.90
60717;DHT22;46566;52.700;6.192;2023-07-29T14:35:10;22.50;99.90
60717;DHT22;46566;52.700;6.192;2023-07-29T14:37:36;22.60;99.90
60717;DHT22;46566;52.700;6.192;2023-07-29T14:40:03;22.70;99.90
60717;DHT22;46566;52.700;6.192;2023-07-29T14:42:55;22.80;99.90
60717;DHT22;46566;52.700;6.192;2023-07-29T14:45:20;22.90;99.90
60717;DHT22;46566;52.700;6.192;2023-07-29T14:47:46;23.00;99.90
60717;DHT22;46566;52.700;6.192;2023-07-29T14:50:12;23.00;99.90
60717;DHT22;46566;52.700;6.192;2023-07-29T14:53:03;23.20;99.90
60717;DHT22;46566;52.700;6.192;2023-07-29T15:08:06;23.30;99.90
60717;DHT22;46566;52.700;6.192;2023-07-29T15:13:17;23.80;99.90
60717;DHT22;46566;52.700;6.192;2023-07-29T15:15:43;23.90;99.90
60717;DHT22;46566;52.700;6.192;2023-07-29T15:18:09;23.80;99.90
60717;DHT22;46566;52.700;6.192;2023-07-29T15:20:35;23.80;99.90
60717;DHT22;46566;52.700;6.192;2023-07-29T15:23:26;23.90;99.90
60717;DHT22;46566;52.700;6.192;2023-07-29T15:25:51;23.90;99.90
60717;DHT22;46566;52.700;6.192;2023-07-29T15:28:17;23.80;99.90
60717;DHT22;46566;52.700;6.192;2023-07-29T15:30:43;23.60;99.90
60717;DHT22;46566;52.700;6.192;2023-07-29T15:33:34;23.50;99.90
60717;DHT22;46566;52.700;6.192;2023-07-29T15:36:00;23.60;99.90
60717;DHT22;46566;52.700;6.192;2023-07-29T15:38:26;23.50;99.90
60717;DHT22;46566;52.700;6.192;2023-07-29T15:40:51;23.50;99.90
60717;DHT22;46566;52.700;6.192;2023-07-29T15:43:43;23.50;99.90
60717;DHT22;46566;52.700;6.192;2023-07-29T15:46:08;23.60;99.90
60717;DHT22;46566;52.700;6.192;2023-07-29T15:48:34;23.60;99.90
60717;DHT22;46566;52.700;6.192;2023-07-29T15:51:00;23.50;99.90
60717;DHT22;46566;52.700;6.192;2023-07-29T15:53:51;23.50;99.90
60717;DHT22;46566;52.700;6.192;2023-07-29T15:56:16;23.50;99.90
60717;DHT22;46566;52.700;6.192;2023-07-29T15:58:42;23.60;99.90
60717;DHT22;46566;52.700;6.192;2023-07-29T16:01:08;23.60;99.90
60717;DHT22;46566;52.700;6.192;2023-07-29T16:03:59;23.50;99.90
60717;DHT22;46566;52.700;6.192;2023-07-29T16:06:25;23.50;99.90
60717;DHT22;46566;52.700;6.192;2023-07-29T16:08:51;23.50;99.90
60717;DHT22;46566;52.700;6.192;2023-07-29T16:11:17;23.50;99.90
60717;DHT22;46566;52.700;6.192;2023-07-29T16:14:08;23.50;99.90
60717;DHT22;46566;52.700;6.192;2023-07-29T16:16:33;23.40;99.90
60717;DHT22;46566;52.700;6.192;2023-07-29T16:18:59;23.30;99.90
60717;DHT22;46566;52.700;6.192;2023-07-29T16:21:25;23.30;99.90
60717;DHT22;46566;52.700;6.192;2023-07-29T16:24:16;23.20;99.90
60717;DHT22;46566;52.700;6.192;2023-07-29T16:26:42;23.20;99.90
60717;DHT22;46566;52.700;6.192;2023-07-29T16:29:07;23.20;99.90
60717;DHT22;46566;52.700;6.192;2023-07-29T16:31:34;23.20;99.90
60717;DHT22;46566;52.700;6.192;2023-07-29T16:36:57;23.20;99.90
60717;DHT22;46566;52.700;6.192;2023-07-29T16:39:23;23.20;99.90
60717;DHT22;46566;52.700;6.192;2023-07-29T16:42:14;23.20;99.90
60717;DHT22;46566;52.700;6.192;2023-07-29T16:44:40;23.20;99.90
60717;DHT22;46566;52.700;6.192;2023-07-29T16:47:08;23.20;99.90
60717;DHT22;46566;52.700;6.192;2023-07-29T16:49:36;23.20;99.90
60717;DHT22;46566;52.700;6.192;2023-07-29T16:52:27;23.10;99.90
60717;DHT22;46566;52.700;6.192;2023-07-29T16:54:53;23.20;99.90
60717;DHT22;46566;52.700;6.192;2023-07-29T16:57:18;23.10;99.90
60717;DHT22;46566;52.700;6.192;2023-07-29T16:59:44;23.10;99.90
60717;DHT22;46566;52.700;6.192;2023-07-29T17:05:15;23.10;99.90
60717;DHT22;46566;52.700;6.192;2023-07-29T17:08:06;23.00;99.90
60717;DHT22;46566;52.700;6.192;2023-07-29T17:10:32;23.00;99.90
60717;DHT22;46566;52.700;6.192;2023-07-29T17:12:57;22.90;99.90